Time,TemperatureF,DewpointF,PressureIn,WindDirection,WindDirectionDegrees,WindSpeedMPH,WindSpeedGustMPH,Humidity,HourlyPrecipIn,Conditions,Clouds,dailyrainin,SoftwareType,DateUTC
2013-08-25 00:06:00,71.5,67.0,30.24,NNE,22,7.0,14.0,85,0.00,,,0.00,weatherlink.com 1.10,2013-08-25 04:06:00,
2013-08-25 00:21:00,71.3,67.0,30.24,NNE,28,7.0,14.0,85,0.00,,,0.00,weatherlink.com 1.10,2013-08-25 04:21:00,
2013-08-25 00:36:00,71.1,66.0,30.24,NNE,24,10.0,15.0,85,0.00,,,0.00,weatherlink.com 1.10,2013-08-25 04:36:00,
2013-08-25 00:51:00,70.7,66.0,30.24,NNE,18,9.0,15.0,85,0.00,,,0.00,weatherlink.com 1.10,2013-08-25 04:51:00,
2013-08-25 01:06:00,70.5,66.0,30.24,NNE,30,7.0,13.0,85,0.00,,,0.00,weatherlink.com 1.10,2013-08-25 05:06:00,
2013-08-25 01:21:00,70.4,66.0,30.24,NNE,29,5.0,14.0,85,0.00,,,0.00,weatherlink.com 1.10,2013-08-25 05:21:00,
2013-08-25 01:36:00,70.3,66.0,30.24,NNE,28,10.0,13.0,85,0.00,,,0.00,weatherlink.com 1.10,2013-08-25 05:36:00,
2013-08-25 01:51:00,70.3,66.0,30.24,NNE,28,3.0,13.0,86,0.00,,,0.00,weatherlink.com 1.10,2013-08-25 05:51:00,
2013-08-25 02:06:00,70.0,66.0,30.24,NE,39,8.0,12.0,86,0.00,,,0.00,weatherlink.com 1.10,2013-08-25 06:06:00,
2013-08-25 02:21:00,69.7,65.0,30.24,NNE,22,8.0,12.0,85,0.00,,,0.00,weatherlink.com 1.10,2013-08-25 06:21:00,
2013-08-25 02:36:00,69.3,65.0,30.24,NNE,13,6.0,12.0,86,0.00,,,0.00,weatherlink.com 1.10,2013-08-25 06:36:00,
2013-08-25 02:51:00,69.3,65.0,30.24,NNE,22,5.0,12.0,86,0.00,,,0.00,weatherlink.com 1.10,2013-08-25 06:51:00,
2013-08-25 03:06:00,69.3,65.0,30.24,NNE,29,11.0,12.0,85,0.00,,,0.00,weatherlink.com 1.10,2013-08-25 07:06:00,
2013-08-25 03:21:00,69.0,64.0,30.23,North,360,1.0,11.0,85,0.00,,,0.00,weatherlink.com 1.10,2013-08-25 07:21:00,
2013-08-25 03:36:00,69.2,65.0,30.23,NNE,21,11.0,14.0,85,0.00,,,0.00,weatherlink.com 1.10,2013-08-25 07:36:00,
2013-08-25 03:51:00,69.4,65.0,30.23,NNE,24,9.0,13.0,85,0.00,,,0.00,weatherlink.com 1.10,2013-08-25 07:51:00,
2013-08-25 04:06:00,69.2,64.0,30.22,NNE,23,12.0,13.0,84,0.00,,,0.00,weatherlink.com 1.10,2013-08-25 08:06:00,
2013-08-25 04:21:00,69.2,64.0,30.22,NNE,22,6.0,13.0,84,0.00,,,0.00,weatherlink.com 1.10,2013-08-25 08:21:00,
2013-08-25 04:36:00,69.1,64.0,30.23,NNE,28,6.0,14.0,84,0.00,,,0.00,weatherlink.com 1.10,2013-08-25 08:36:00,
2013-08-25 04:51:00,69.0,64.0,30.23,North,10,1.0,12.0,84,0.00,,,0.00,weatherlink.com 1.10,2013-08-25 08:51:00,
2013-08-25 05:06:00,68.8,64.0,30.23,NE,34,10.0,13.0,85,0.00,,,0.00,weatherlink.com 1.10,2013-08-25 09:06:00,
2013-08-25 05:21:00,68.5,64.0,30.23,NNE,26,9.0,13.0,85,0.00,,,0.00,weatherlink.com 1.10,2013-08-25 09:21:00,
2013-08-25 05:36:00,68.5,64.0,30.23,NNE,22,9.0,14.0,85,0.00,,,0.00,weatherlink.com 1.10,2013-08-25 09:36:00,
2013-08-25 05:51:00,68.4,64.0,30.24,NNE,19,10.0,15.0,85,0.00,,,0.00,weatherlink.com 1.10,2013-08-25 09:51:00,
2013-08-25 06:07:00,68.5,64.0,30.24,NNE,13,9.0,12.0,85,0.00,,,0.00,weatherlink.com 1.10,2013-08-25 10:07:00,
2013-08-25 06:22:00,68.5,64.0,30.24,NNE,27,10.0,12.0,85,0.00,,,0.00,weatherlink.com 1.10,2013-08-25 10:22:00,
2013-08-25 06:37:00,68.6,64.0,30.24,NNE,19,8.0,14.0,85,0.00,,,0.00,weatherlink.com 1.10,2013-08-25 10:37:00,
2013-08-25 06:52:00,68.6,64.0,30.25,NNE,22,8.0,14.0,85,0.00,,,0.00,weatherlink.com 1.10,2013-08-25 10:52:00,
2013-08-25 07:07:00,68.7,64.0,30.25,NNE,25,12.0,15.0,84,0.00,,,0.00,weatherlink.com 1.10,2013-08-25 11:07:00,
2013-08-25 07:22:00,68.6,64.0,30.26,NNE,21,6.0,13.0,84,0.00,,,0.00,weatherlink.com 1.10,2013-08-25 11:22:00,
2013-08-25 07:37:00,68.6,64.0,30.26,NNE,28,8.0,13.0,85,0.00,,,0.00,weatherlink.com 1.10,2013-08-25 11:37:00,
2013-08-25 07:52:00,68.8,64.0,30.27,NNE,20,13.0,15.0,84,0.00,,,0.00,weatherlink.com 1.10,2013-08-25 11:52:00,
2013-08-25 08:07:00,69.1,64.0,30.27,NNE,17,9.0,19.0,83,0.00,,,0.00,weatherlink.com 1.10,2013-08-25 12:07:00,
2013-08-25 08:22:00,69.5,64.0,30.28,NNE,29,9.0,18.0,82,0.00,,,0.00,weatherlink.com 1.10,2013-08-25 12:22:00,
2013-08-25 08:37:00,69.9,64.0,30.29,NNE,32,14.0,20.0,82,0.00,,,0.00,weatherlink.com 1.10,2013-08-25 12:37:00,
2013-08-25 08:52:00,70.7,65.0,30.29,NNE,24,11.0,16.0,81,0.00,,,0.00,weatherlink.com 1.10,2013-08-25 12:52:00,
2013-08-25 09:07:00,71.4,65.0,30.30,NNE,28,8.0,16.0,80,0.00,,,0.00,weatherlink.com 1.10,2013-08-25 13:07:00,
2013-08-25 09:22:00,72.1,65.0,30.31,NNE,19,9.0,18.0,78,0.00,,,0.00,weatherlink.com 1.10,2013-08-25 13:22:00,
2013-08-25 09:37:00,72.6,65.0,30.31,NNE,33,16.0,18.0,77,0.00,,,0.00,weatherlink.com 1.10,2013-08-25 13:37:00,
2013-08-25 09:52:00,73.1,66.0,30.32,NNE,28,15.0,21.0,77,0.00,,,0.00,weatherlink.com 1.10,2013-08-25 13:52:00,
2013-08-25 10:07:00,73.8,66.0,30.31,NNE,27,10.0,16.0,77,0.00,,,0.00,weatherlink.com 1.10,2013-08-25 14:07:00,
2013-08-25 10:22:00,74.2,65.0,30.32,NNE,27,11.0,18.0,73,0.00,,,0.00,weatherlink.com 1.10,2013-08-25 14:22:00,
2013-08-25 10:37:00,74.7,66.0,30.32,NNE,28,10.0,19.0,73,0.00,,,0.00,weatherlink.com 1.10,2013-08-25 14:37:00,
2013-08-25 10:52:00,75.0,66.0,30.32,NNE,13,16.0,19.0,73,0.00,,,0.00,weatherlink.com 1.10,2013-08-25 14:52:00,
2013-08-25 11:07:00,75.2,66.0,30.32,NNE,17,13.0,19.0,73,0.00,,,0.00,weatherlink.com 1.10,2013-08-25 15:07:00,
2013-08-25 11:22:00,75.7,66.0,30.32,NNE,27,5.0,18.0,71,0.00,,,0.00,weatherlink.com 1.10,2013-08-25 15:22:00,
2013-08-25 11:37:00,76.1,66.0,30.32,NNE,32,1.0,17.0,70,0.00,,,0.00,weatherlink.com 1.10,2013-08-25 15:37:00,
2013-08-25 11:52:00,76.6,66.0,30.31,NNE,28,11.0,15.0,70,0.00,,,0.00,weatherlink.com 1.10,2013-08-25 15:52:00,
2013-08-25 12:07:00,76.7,66.0,30.31,NNE,33,14.0,17.0,69,0.00,,,0.00,weatherlink.com 1.10,2013-08-25 16:07:00,
2013-08-25 12:22:00,77.1,66.0,30.30,NNE,29,5.0,14.0,69,0.00,,,0.00,weatherlink.com 1.10,2013-08-25 16:22:00,
2013-08-25 12:37:00,77.4,67.0,30.30,NNE,15,8.0,15.0,70,0.00,,,0.00,weatherlink.com 1.10,2013-08-25 16:37:00,
2013-08-25 12:52:00,78.0,66.0,30.29,NNE,30,12.0,14.0,67,0.00,,,0.00,weatherlink.com 1.10,2013-08-25 16:52:00,
2013-08-25 13:07:00,78.0,65.0,30.29,NNE,20,5.0,15.0,65,0.00,,,0.00,weatherlink.com 1.10,2013-08-25 17:07:00,
2013-08-25 13:22:00,78.5,68.0,30.29,NNE,31,2.0,12.0,69,0.00,,,0.00,weatherlink.com 1.10,2013-08-25 17:22:00,
2013-08-25 13:37:00,78.4,65.0,30.29,NNE,26,8.0,13.0,64,0.00,,,0.00,weatherlink.com 1.10,2013-08-25 17:37:00,
2013-08-25 13:52:00,78.7,67.0,30.28,NNE,21,13.0,14.0,68,0.00,,,0.00,weatherlink.com 1.10,2013-08-25 17:52:00,
2013-08-25 14:07:00,78.7,66.0,30.28,NNE,24,3.0,12.0,66,0.00,,,0.00,weatherlink.com 1.10,2013-08-25 18:07:00,
2013-08-25 14:22:00,78.5,68.0,30.27,NNE,28,3.0,13.0,70,0.00,,,0.00,weatherlink.com 1.10,2013-08-25 18:22:00,
2013-08-25 14:37:00,78.4,67.0,30.27,NNE,26,10.0,14.0,69,0.00,,,0.00,weatherlink.com 1.10,2013-08-25 18:37:00,
2013-08-25 14:52:00,78.6,68.0,30.27,NNE,22,6.0,12.0,70,0.00,,,0.00,weatherlink.com 1.10,2013-08-25 18:52:00,
2013-08-25 15:07:00,78.6,68.0,30.27,NNE,32,7.0,10.0,71,0.00,,,0.00,weatherlink.com 1.10,2013-08-25 19:07:00,
2013-08-25 15:22:00,78.5,68.0,30.27,NNE,29,6.0,11.0,69,0.00,,,0.00,weatherlink.com 1.10,2013-08-25 19:22:00,
2013-08-25 15:37:00,78.8,68.0,30.26,NNE,30,5.0,10.0,69,0.00,,,0.00,weatherlink.com 1.10,2013-08-25 19:37:00,
2013-08-25 15:52:00,78.8,69.0,30.25,NNE,26,8.0,10.0,71,0.00,,,0.00,weatherlink.com 1.10,2013-08-25 19:52:00,
2013-08-25 16:07:00,79.0,69.0,30.25,NNE,22,1.0,11.0,71,0.00,,,0.00,weatherlink.com 1.10,2013-08-25 20:07:00,
2013-08-25 16:22:00,79.1,68.0,30.25,NE,51,3.0,16.0,69,0.00,,,0.00,weatherlink.com 1.10,2013-08-25 20:22:00,
2013-08-25 16:37:00,79.1,69.0,30.24,NNE,23,0.0,7.0,70,0.00,,,0.00,weatherlink.com 1.10,2013-08-25 20:37:00,
2013-08-25 16:52:00,78.7,69.0,30.24,NNE,32,1.0,7.0,72,0.00,,,0.00,weatherlink.com 1.10,2013-08-25 20:52:00,
2013-08-25 17:07:00,78.8,69.0,30.24,NNE,22,3.0,10.0,71,0.00,,,0.00,weatherlink.com 1.10,2013-08-25 21:07:00,
2013-08-25 17:22:00,78.9,67.0,30.24,ENE,78,3.0,6.0,67,0.00,,,0.00,weatherlink.com 1.10,2013-08-25 21:22:00,
2013-08-25 17:37:00,79.1,69.0,30.24,NNE,24,9.0,11.0,71,0.00,,,0.00,weatherlink.com 1.10,2013-08-25 21:37:00,
2013-08-25 17:52:00,78.4,70.0,30.24,NNE,22,3.0,13.0,75,0.00,,,0.00,weatherlink.com 1.10,2013-08-25 21:52:00,
2013-08-25 18:07:00,78.3,69.0,30.25,NNE,28,3.0,10.0,74,0.00,,,0.00,weatherlink.com 1.10,2013-08-25 22:07:00,
2013-08-25 18:22:00,78.1,69.0,30.25,NNE,28,3.0,11.0,74,0.00,,,0.00,weatherlink.com 1.10,2013-08-25 22:22:00,
2013-08-25 18:37:00,77.7,68.0,30.25,ENE,59,4.0,11.0,73,0.00,,,0.00,weatherlink.com 1.10,2013-08-25 22:37:00,
2013-08-25 18:52:00,77.2,68.0,30.25,NE,38,3.0,9.0,74,0.00,,,0.00,weatherlink.com 1.10,2013-08-25 22:52:00,
2013-08-25 19:07:00,77.0,69.0,30.25,NNE,22,3.0,11.0,75,0.00,,,0.00,weatherlink.com 1.10,2013-08-25 23:07:00,
2013-08-25 19:22:00,76.6,69.0,30.26,NE,42,2.0,7.0,77,0.00,,,0.00,weatherlink.com 1.10,2013-08-25 23:22:00,
2013-08-25 19:38:00,76.0,69.0,30.25,NE,39,3.0,5.0,78,0.00,,,0.00,weatherlink.com 1.10,2013-08-25 23:38:00,
2013-08-25 19:52:00,75.8,69.0,30.26,NNE,24,3.0,9.0,79,0.00,,,0.00,weatherlink.com 1.10,2013-08-25 23:52:00,
2013-08-25 20:07:00,75.3,69.0,30.26,NNE,22,3.0,7.0,80,0.00,,,0.00,weatherlink.com 1.10,2013-08-26 00:07:00,
2013-08-25 20:22:00,74.8,68.0,30.26,NNE,16,2.0,5.0,80,0.00,,,0.00,weatherlink.com 1.10,2013-08-26 00:22:00,
2013-08-25 20:38:00,74.5,69.0,30.26,NE,36,3.0,6.0,82,0.00,,,0.00,weatherlink.com 1.10,2013-08-26 00:38:00,
2013-08-25 20:53:00,74.2,68.0,30.26,NE,34,1.0,6.0,81,0.00,,,0.00,weatherlink.com 1.10,2013-08-26 00:53:00,
2013-08-25 21:08:00,74.0,68.0,30.26,NNE,28,4.0,7.0,82,0.00,,,0.00,weatherlink.com 1.10,2013-08-26 01:08:00,
2013-08-25 21:23:00,73.6,68.0,30.27,NNE,28,4.0,7.0,82,0.00,,,0.00,weatherlink.com 1.10,2013-08-26 01:23:00,
2013-08-25 21:38:00,73.2,68.0,30.27,NNE,29,6.0,8.0,83,0.00,,,0.00,weatherlink.com 1.10,2013-08-26 01:38:00,
2013-08-25 21:53:00,72.7,67.0,30.27,NNE,26,7.0,8.0,83,0.00,,,0.00,weatherlink.com 1.10,2013-08-26 01:53:00,
2013-08-25 22:08:00,72.1,67.0,30.26,NNE,24,5.0,8.0,84,0.00,,,0.00,weatherlink.com 1.10,2013-08-26 02:08:00,
2013-08-25 22:23:00,71.8,66.0,30.27,NNE,31,5.0,9.0,83,0.00,,,0.00,weatherlink.com 1.10,2013-08-26 02:23:00,
2013-08-25 22:38:00,71.5,66.0,30.27,NNE,23,5.0,9.0,83,0.00,,,0.00,weatherlink.com 1.10,2013-08-26 02:38:00,
2013-08-25 22:53:00,71.0,66.0,30.27,NNE,19,5.0,9.0,83,0.00,,,0.00,weatherlink.com 1.10,2013-08-26 02:53:00,
2013-08-25 23:08:00,70.7,65.0,30.28,North,11,5.0,8.0,83,0.00,,,0.00,weatherlink.com 1.10,2013-08-26 03:08:00,
2013-08-25 23:23:00,70.4,65.0,30.28,North,11,3.0,7.0,83,0.00,,,0.00,weatherlink.com 1.10,2013-08-26 03:23:00,
2013-08-25 23:38:00,70.2,65.0,30.28,NNE,26,5.0,7.0,84,0.00,,,0.00,weatherlink.com 1.10,2013-08-26 03:38:00,
2013-08-25 23:53:00,69.9,65.0,30.27,NNE,24,8.0,9.0,84,0.00,,,0.00,weatherlink.com 1.10,2013-08-26 03:53:00,